Time;durP1;ratioP1;P1;durP2;ratioP2;P2;SDS_P1;SDS_P2;PMS_P1;PMS_P2;Temp;Humidity;BMP_temperature;BMP_pressure;BME280_temperature;BME280_humidity;BME280_pressure;Samples;Min_cycle;Max_cycle;Signal;HPM_P1;HPM_P2
2023/10/08 00:02:25;;;;;;;;;;;14.90;99.90;;;14.29;100.00;98546.00;5001523;28;19929;-73
2023/10/08 00:04:54;;;;;;;;;;;14.80;99.90;;;14.25;100.00;98549.66;5002037;28;19945;-73
2023/10/08 00:07:21;;;;;;;;;;;14.80;99.90;;;14.13;100.00;98553.63;5002837;28;20409;-72
2023/10/08 00:09:51;;;;;;;;;;;14.80;99.90;;;14.20;100.00;98553.31;5013822;28;21148;-73
2023/10/08 00:12:19;;;;;;;;;;;14.80;99.90;;;14.08;100.00;98542.53;4996950;28;20329;-74
2023/10/08 00:14:49;;;;;;;;;;;14.80;99.90;;;14.09;100.00;98545.06;4999301;28;19933;-74
2023/10/08 00:17:19;;;;;;;;;;;14.80;99.90;;;14.05;100.00;98543.53;5002884;28;19933;-73
2023/10/08 00:19:52;;;;;;;;;;;14.70;99.90;;;14.16;100.00;98548.28;4998154;28;20429;-73
2023/10/08 00:22:20;;;;;;;;;;;14.70;99.90;;;14.13;100.00;98551.03;5015677;28;19965;-73
2023/10/08 00:24:49;;;;;;;;;;;14.60;99.90;;;13.95;100.00;98536.97;4998187;28;19929;-73
2023/10/08 00:27:17;;;;;;;;;;;14.60;99.90;;;13.97;100.00;98553.41;5000544;28;19992;-73
2023/10/08 00:29:45;;;;;;;;;;;14.60;99.90;;;13.95;100.00;98550.84;5000348;28;19978;-73
2023/10/08 00:32:12;;;;;;;;;;;14.50;99.90;;;13.95;100.00;98561.28;5004160;28;19936;-73
2023/10/08 00:34:41;;;;;;;;;;;14.50;99.90;;;13.81;100.00;98561.84;4985096;28;19926;-73
2023/10/08 00:37:10;;;;;;;;;;;14.40;99.90;;;13.80;100.00;98554.09;5000589;28;20035;-73
2023/10/08 00:39:39;;;;;;;;;;;14.40;99.90;;;13.61;100.00;98556.56;5013964;28;19929;-72
2023/10/08 00:42:09;;;;;;;;;;;14.40;99.90;;;13.63;100.00;98559.97;4999662;28;20096;-73
2023/10/08 00:45:13;;;;;;;;;;;14.40;99.90;;;13.62;100.00;98553.06;5001715;28;19984;-73
2023/10/08 00:47:30;;;;;;;;;;;14.30;99.90;;;13.62;100.00;98547.00;5000106;28;19969;-73
2023/10/08 00:50:06;;;;;;;;;;;14.30;99.90;;;13.56;100.00;98553.31;4998934;28;19934;-73
2023/10/08 00:52:40;;;;;;;;;;;14.30;99.90;;;13.53;100.00;98556.03;5002539;28;20016;-73
2023/10/08 00:55:11;;;;;;;;;;;14.20;99.90;;;13.44;100.00;98548.56;4988349;28;19976;-73
2023/10/08 00:57:42;;;;;;;;;;;14.20;99.90;;;13.47;100.00;98549.28;5007785;28;19929;-73
2023/10/08 01:00:21;;;;;;;;;;;14.20;99.90;;;13.49;100.00;98560.50;5003206;28;19926;-74
2023/10/08 01:02:54;;;;;;;;;;;14.20;99.90;;;13.58;100.00;98551.50;5006990;28;19929;-73
2023/10/08 01:05:26;;;;;;;;;;;14.20;99.90;;;13.51;100.00;98544.81;5004879;28;20055;-73
2023/10/08 01:07:55;;;;;;;;;;;14.20;99.90;;;13.45;100.00;98551.09;5014630;28;19926;-74
2023/10/08 01:10:24;;;;;;;;;;;14.10;99.90;;;13.37;100.00;98553.16;5006116;28;19972;-73
2023/10/08 01:13:03;;;;;;;;;;;14.10;99.90;;;13.41;100.00;98540.84;5004443;28;19933;-73
2023/10/08 01:15:35;;;;;;;;;;;14.10;99.90;;;13.31;100.00;98541.19;5017703;28;19933;-73
2023/10/08 01:18:14;;;;;;;;;;;14.00;99.90;;;13.27;100.00;98542.19;5005479;28;19926;-73
2023/10/08 01:23:16;;;;;;;;;;;14.00;99.90;;;13.26;100.00;98543.13;5006603;28;19929;-73
2023/10/08 01:25:57;;;;;;;;;;;14.00;99.90;;;13.16;100.00;98531.34;5001949;28;19984;-72
2023/10/08 01:28:28;;;;;;;;;;;13.90;99.90;;;13.27;100.00;98529.16;5006120;28;19968;-73
2023/10/08 01:31:00;;;;;;;;;;;14.00;99.90;;;13.23;100.00;98522.38;5003627;28;20409;-73
2023/10/08 01:33:27;;;;;;;;;;;13.90;99.90;;;13.30;100.00;98517.81;5007252;28;19925;-73
2023/10/08 01:36:02;;;;;;;;;;;13.90;99.90;;;13.35;100.00;98506.28;5004984;28;19929;-73
2023/10/08 01:38:30;;;;;;;;;;;13.90;99.90;;;13.35;100.00;98514.09;5004364;28;20406;-74
2023/10/08 01:41:03;;;;;;;;;;;13.90;99.90;;;13.31;100.00;98506.47;5016974;28;19932;-73
2023/10/08 01:43:30;;;;;;;;;;;13.90;99.90;;;13.34;100.00;98498.50;5004062;28;19937;-73
2023/10/08 01:45:57;;;;;;;;;;;14.00;99.90;;;13.45;100.00;98513.75;5016706;28;19960;-73
2023/10/08 01:48:36;;;;;;;;;;;13.90;99.90;;;13.33;100.00;98502.88;5003175;28;19933;-73
2023/10/08 01:51:09;;;;;;;;;;;13.90;99.90;;;13.21;100.00;98508.56;5002569;28;19973;-73
2023/10/08 01:53:38;;;;;;;;;;;13.90;99.90;;;13.22;100.00;98514.59;5004230;28;19925;-72
2023/10/08 01:56:06;;;;;;;;;;;13.90;99.90;;;13.31;100.00;98515.13;5002033;28;20015;-73
2023/10/08 01:58:35;;;;;;;;;;;13.90;99.90;;;13.37;100.00;98509.69;5007404;28;19976;-73
2023/10/08 02:01:05;;;;;;;;;;;13.90;99.90;;;13.28;100.00;98510.03;5004227;28;19925;-73
2023/10/08 02:03:32;;;;;;;;;;;13.90;99.90;;;13.37;100.00;98512.28;5000556;28;19968;-73
2023/10/08 02:05:59;;;;;;;;;;;13.90;99.90;;;13.24;100.00;98507.59;5007784;28;19940;-73
2023/10/08 02:08:27;;;;;;;;;;;13.90;99.90;;;13.22;100.00;98509.41;5006256;28;20374;-73
2023/10/08 02:10:54;;;;;;;;;;;13.90;99.90;;;13.23;100.00;98505.88;5004152;28;19933;-73
2023/10/08 02:13:21;;;;;;;;;;;13.90;99.90;;;13.26;100.00;98508.38;5004625;28;20309;-74
2023/10/08 02:15:54;;;;;;;;;;;13.90;99.90;;;13.23;100.00;98509.34;5004641;28;19925;-73
2023/10/08 02:18:23;;;;;;;;;;;13.90;99.90;;;13.24;100.00;98516.25;5004627;28;19929;-73
2023/10/08 02:20:51;;;;;;;;;;;13.90;99.90;;;13.14;100.00;98510.53;5001695;28;19937;-72
2023/10/08 02:23:18;;;;;;;;;;;13.80;99.90;;;13.24;100.00;98513.63;5005737;28;19937;-74
2023/10/08 02:25:45;;;;;;;;;;;13.80;99.90;;;13.12;100.00;98507.13;5003026;28;19935;-73
2023/10/08 02:28:15;;;;;;;;;;;13.80;99.90;;;13.07;100.00;98509.06;5002809;28;19991;-73
2023/10/08 02:30:43;;;;;;;;;;;13.80;99.90;;;13.10;100.00;98514.16;5003551;28;20325;-74
2023/10/08 02:33:16;;;;;;;;;;;13.70;99.90;;;13.15;100.00;98514.84;5003050;28;19926;-74
2023/10/08 02:35:45;;;;;;;;;;;13.70;99.90;;;13.10;100.00;98510.72;5000745;28;19930;-74
2023/10/08 02:38:16;;;;;;;;;;;13.70;99.90;;;13.04;100.00;98503.13;5014965;28;20402;-73
2023/10/08 02:40:47;;;;;;;;;;;13.70;99.90;;;13.01;100.00;98511.91;4988457;28;19937;-73
2023/10/08 02:43:16;;;;;;;;;;;13.70;99.90;;;13.03;100.00;98506.66;5003901;28;19930;-74
2023/10/08 02:45:50;;;;;;;;;;;13.60;99.90;;;12.89;100.00;98517.59;5001768;28;19925;-74
2023/10/08 02:48:17;;;;;;;;;;;13.60;99.90;;;12.85;100.00;98522.03;5001294;28;20287;-74
2023/10/08 02:50:45;;;;;;;;;;;13.50;99.90;;;12.79;100.00;98513.59;5001937;28;20351;-73
2023/10/08 02:53:17;;;;;;;;;;;13.50;99.90;;;12.81;100.00;98515.25;4999777;28;19926;-73
2023/10/08 02:55:46;;;;;;;;;;;13.40;99.90;;;12.83;100.00;98521.25;5002322;28;19965;-72
2023/10/08 02:58:14;;;;;;;;;;;13.40;99.90;;;12.80;100.00;98517.94;5002327;28;19940;-73
2023/10/08 03:00:43;;;;;;;;;;;13.30;99.90;;;12.62;100.00;98516.84;5000313;28;19937;-74
2023/10/08 03:03:16;;;;;;;;;;;13.30;99.90;;;12.61;100.00;98523.78;5002995;28;19995;-73
2023/10/08 03:05:51;;;;;;;;;;;13.30;99.90;;;12.51;100.00;98517.22;5002139;28;20056;-73
2023/10/08 03:08:23;;;;;;;;;;;13.20;99.90;;;12.40;100.00;98514.13;5001643;28;20333;-74
2023/10/08 03:10:55;;;;;;;;;;;13.20;99.90;;;12.40;100.00;98519.34;5002627;28;19925;-74
2023/10/08 03:13:22;;;;;;;;;;;13.20;99.90;;;12.36;100.00;98521.19;4999462;28;19929;-73
2023/10/08 03:18:36;;;;;;;;;;;13.10;99.90;;;12.31;100.00;98523.09;5013281;28;20052;-74
2023/10/08 03:21:05;;;;;;;;;;;13.10;99.90;;;12.39;100.00;98523.69;4999365;28;20008;-74
2023/10/08 03:23:36;;;;;;;;;;;13.00;99.90;;;12.31;100.00;98523.94;5000438;28;19938;-73
2023/10/08 03:26:32;;;;;;;;;;;13.00;99.90;;;12.21;100.00;98508.72;5003445;28;19930;-74
2023/10/08 03:29:15;;;;;;;;;;;13.00;99.90;;;12.07;100.00;98517.00;5012832;28;19932;-73
2023/10/08 03:34:18;;;;;;;;;;;12.80;99.90;;;12.10;100.00;98512.50;5005753;28;19970;-74
2023/10/08 03:36:46;;;;;;;;;;;12.80;99.90;;;12.06;100.00;98513.50;5005120;28;19933;-72
2023/10/08 03:39:14;;;;;;;;;;;12.80;99.90;;;11.97;100.00;98510.38;5003347;28;19940;-73
2023/10/08 03:41:42;;;;;;;;;;;12.70;99.90;;;11.90;100.00;98509.72;5011235;28;19949;-74
2023/10/08 03:44:16;;;;;;;;;;;12.70;99.90;;;11.94;100.00;98503.53;5001570;28;19969;-74
2023/10/08 03:46:46;;;;;;;;;;;12.70;99.90;;;11.91;100.00;98501.03;4999776;28;20239;-73
2023/10/08 03:49:24;;;;;;;;;;;12.70;99.90;;;11.92;100.00;98498.38;5000692;28;20011;-73
2023/10/08 03:51:52;;;;;;;;;;;12.70;99.90;;;11.84;100.00;98487.34;5003348;28;20380;-73
2023/10/08 03:54:29;;;;;;;;;;;12.60;99.90;;;11.95;100.00;98484.44;5002749;28;19930;-73
2023/10/08 03:56:57;;;;;;;;;;;12.70;99.90;;;11.95;100.00;98487.03;5002381;28;20051;-73
2023/10/08 03:59:31;;;;;;;;;;;12.60;99.90;;;11.97;100.00;98493.00;5012820;28;19984;-74
2023/10/08 04:02:10;;;;;;;;;;;12.60;99.90;;;11.98;100.00;98486.06;4999386;28;19926;-73
2023/10/08 04:04:49;;;;;;;;;;;12.60;99.90;;;12.00;100.00;98492.94;5000548;28;19929;-73
2023/10/08 04:12:43;;;;;;;;;;;12.40;99.90;;;11.78;100.00;98490.16;5001472;28;19930;-74
2023/10/08 04:15:16;;;;;;;;;;;12.40;99.90;;;11.73;100.00;98494.66;5003986;28;20374;-73
2023/10/08 04:17:44;;;;;;;;;;;12.40;99.90;;;11.71;100.00;98486.88;5008424;28;19929;-73
2023/10/08 04:23:00;;;;;;;;;;;12.40;99.90;;;11.76;100.00;98481.53;5004714;28;19929;-73
2023/10/08 04:25:28;;;;;;;;;;;12.40;99.90;;;11.76;100.00;98486.75;5001892;28;19926;-74
2023/10/08 04:27:59;;;;;;;;;;;12.40;99.90;;;11.65;100.00;98483.63;4988879;28;19929;-73
2023/10/08 04:30:33;;;;;;;;;;;12.40;99.90;;;11.63;100.00;98483.72;5005743;28;20008;-72
2023/10/08 04:33:06;;;;;;;;;;;12.40;99.90;;;11.65;100.00;98489.69;5002453;28;19926;-73
2023/10/08 04:35:36;;;;;;;;;;;12.40;99.90;;;11.66;100.00;98482.75;5006508;28;20381;-73
2023/10/08 04:38:08;;;;;;;;;;;12.30;99.90;;;11.66;100.00;98487.97;5007787;28;19929;-73
2023/10/08 04:40:47;;;;;;;;;;;12.30;99.90;;;11.61;100.00;98501.09;5006917;28;19930;-72
2023/10/08 04:43:22;;;;;;;;;;;12.30;99.90;;;11.57;100.00;98502.09;5006096;28;19948;-74
2023/10/08 04:45:49;;;;;;;;;;;12.40;99.90;;;11.63;100.00;98501.91;5006100;28;20020;-73
2023/10/08 04:48:20;;;;;;;;;;;12.40;99.90;;;11.78;100.00;98504.91;5006450;28;19933;-73
2023/10/08 04:50:58;;;;;;;;;;;12.50;99.90;;;11.78;100.00;98507.50;5003660;28;19937;-73
2023/10/08 04:53:36;;;;;;;;;;;12.50;99.90;;;11.76;100.00;98502.34;5005597;28;19936;-73
2023/10/08 04:56:16;;;;;;;;;;;12.50;99.90;;;11.71;100.00;98499.91;5006359;28;19925;-74
2023/10/08 04:58:47;;;;;;;;;;;12.50;99.90;;;11.59;100.00;98495.09;5003667;28;19929;-73
2023/10/08 05:01:20;;;;;;;;;;;12.50;99.90;;;11.45;100.00;98492.94;5016131;28;19933;-73
2023/10/08 05:09:22;;;;;;;;;;;12.20;99.90;;;11.27;100.00;98475.31;5001660;28;19934;-73
2023/10/08 05:14:34;;;;;;;;;;;12.10;99.90;;;11.10;100.00;98470.63;5002545;28;19984;-74
2023/10/08 05:17:09;;;;;;;;;;;12.00;99.90;;;11.17;100.00;98474.72;5017259;28;20012;-73
2023/10/08 05:19:48;;;;;;;;;;;12.00;99.90;;;11.18;100.00;98473.84;5018067;28;20395;-73
2023/10/08 05:30:28;;;;;;;;;;;12.00;99.90;;;11.15;100.00;98470.50;5002352;28;19936;-74
2023/10/08 05:38:37;;;;;;;;;;;12.00;99.90;;;11.08;100.00;98475.88;5017076;28;20341;-73
2023/10/08 05:41:12;;;;;;;;;;;12.00;99.90;;;11.13;100.00;98477.47;4994264;28;20305;-72
2023/10/08 05:49:15;;;;;;;;;;;12.00;99.90;;;11.22;100.00;98501.47;5001600;28;19925;-73
2023/10/08 05:54:47;;;;;;;;;;;12.10;99.90;;;11.16;100.00;98521.56;5000343;28;20309;-73
2023/10/08 05:57:24;;;;;;;;;;;12.10;99.90;;;11.20;100.00;98520.56;4992787;28;20406;-73
2023/10/08 06:02:48;;;;;;;;;;;12.10;99.90;;;11.26;100.00;98521.22;5000342;28;19929;-73
2023/10/08 06:13:19;;;;;;;;;;;12.10;99.90;;;11.20;100.00;98534.44;4997669;28;20286;-74
2023/10/08 06:15:48;;;;;;;;;;;12.10;99.90;;;11.24;100.00;98533.44;5002916;28;19952;-72
2023/10/08 06:18:17;;;;;;;;;;;12.10;99.90;;;11.27;100.00;98532.50;5002112;28;19930;-73
2023/10/08 06:20:46;;;;;;;;;;;12.10;99.90;;;11.34;100.00;98528.81;5014574;28;19937;-74
2023/10/08 06:23:15;;;;;;;;;;;12.10;99.90;;;11.32;100.00;98532.38;5004159;28;19933;-73
2023/10/08 06:25:45;;;;;;;;;;;12.10;99.90;;;11.19;100.00;98529.28;5003281;28;19938;-73
2023/10/08 06:28:20;;;;;;;;;;;12.10;99.90;;;11.32;100.00;98525.41;5003447;28;19938;-72
2023/10/08 06:30:48;;;;;;;;;;;12.10;99.90;;;11.29;100.00;98531.56;5015914;28;19936;-73
2023/10/08 06:33:16;;;;;;;;;;;12.10;99.90;;;11.29;100.00;98538.50;5003201;28;19929;-73
2023/10/08 06:36:02;;;;;;;;;;;12.10;99.90;;;11.43;100.00;98540.69;5000555;28;20313;-73
2023/10/08 06:38:33;;;;;;;;;;;12.10;99.90;;;11.45;100.00;98542.34;5005880;28;20315;-73
2023/10/08 06:41:09;;;;;;;;;;;12.00;99.90;;;11.54;100.00;98549.00;5010781;28;20012;-73
2023/10/08 06:43:37;;;;;;;;;;;12.10;99.90;;;11.56;100.00;98551.53;4998240;28;20658;-73
2023/10/08 06:46:07;;;;;;;;;;;12.20;99.90;;;11.62;100.00;98557.41;4999889;28;19926;-73
2023/10/08 06:48:34;;;;;;;;;;;12.30;99.90;;;11.68;100.00;98543.38;4999126;28;19930;-73
2023/10/08 06:51:07;;;;;;;;;;;12.40;99.90;;;11.64;100.00;98550.41;5000678;28;20016;-73
2023/10/08 06:53:34;;;;;;;;;;;12.40;99.90;;;11.69;100.00;98551.09;5015929;28;19984;-74
2023/10/08 06:56:05;;;;;;;;;;;12.40;99.90;;;11.83;100.00;98555.88;5001951;28;20116;-73
2023/10/08 06:58:32;;;;;;;;;;;12.50;99.90;;;11.96;100.00;98548.56;5019203;28;20414;-73
2023/10/08 07:01:04;;;;;;;;;;;12.60;99.90;;;12.04;100.00;98559.59;5001080;28;19980;-73
2023/10/08 07:03:33;;;;;;;;;;;12.70;99.90;;;12.24;100.00;98553.69;5002744;28;19926;-73
2023/10/08 07:06:02;;;;;;;;;;;12.90;99.90;;;12.31;100.00;98557.78;5001216;28;20310;-73
2023/10/08 07:08:33;;;;;;;;;;;13.00;99.90;;;12.25;100.00;98551.97;5002625;28;19931;-74
2023/10/08 07:11:06;;;;;;;;;;;13.10;99.90;;;12.32;100.00;98559.50;5000145;28;19947;-74
2023/10/08 07:13:35;;;;;;;;;;;13.10;99.90;;;12.34;100.00;98547.28;5004762;28;19936;-73
2023/10/08 07:16:04;;;;;;;;;;;13.10;99.90;;;12.48;100.00;98552.03;5001983;28;20370;-74
2023/10/08 07:18:33;;;;;;;;;;;13.10;99.90;;;12.41;100.00;98545.31;5018372;28;19930;-73
2023/10/08 07:21:11;;;;;;;;;;;13.10;99.90;;;12.58;100.00;98562.13;4997356;28;19961;-73
2023/10/08 07:23:55;;;;;;;;;;;13.20;99.90;;;12.81;100.00;98561.28;5005890;28;19929;-74
2023/10/08 07:26:35;;;;;;;;;;;13.30;99.90;;;13.10;100.00;98574.13;5004066;28;19952;-73
2023/10/08 07:29:09;;;;;;;;;;;13.50;99.90;;;13.61;100.00;98572.22;5000658;28;19930;-74
2023/10/08 07:31:37;;;;;;;;;;;13.60;99.90;;;13.22;100.00;98562.38;5000326;28;20453;-73
2023/10/08 07:34:57;;;;;;;;;;;13.80;99.90;;;13.22;100.00;98557.16;5000644;28;20089;-74
2023/10/08 07:36:57;;;;;;;;;;;14.00;99.90;;;13.53;100.00;98559.50;4995701;28;20446;-74
2023/10/08 07:41:53;;;;;;;;;;;15.00;99.90;;;14.06;100.00;98575.69;4999951;28;19996;-74
2023/10/08 07:44:21;;;;;;;;;;;15.20;99.90;;;14.37;100.00;98576.13;4984256;28;19930;-73
2023/10/08 07:46:54;;;;;;;;;;;15.50;99.90;;;14.46;100.00;98571.41;5005375;28;19929;-74
2023/10/08 07:49:31;;;;;;;;;;;15.80;99.90;;;14.06;100.00;98576.53;5000168;28;19977;-73
2023/10/08 07:52:01;;;;;;;;;;;15.50;99.90;;;14.02;100.00;98582.78;5004019;28;19933;-73
2023/10/08 07:54:28;;;;;;;;;;;15.20;99.90;;;14.23;100.00;98581.91;5000799;28;20022;-74
2023/10/08 07:57:08;;;;;;;;;;;15.30;99.90;;;14.19;100.00;98575.13;5013326;28;19969;-72
2023/10/08 07:59:46;;;;;;;;;;;15.50;99.90;;;14.07;100.00;98588.69;4989414;28;19930;-74
2023/10/08 08:02:17;;;;;;;;;;;15.60;99.90;;;14.70;100.00;98587.84;5005569;28;19931;-74
2023/10/08 08:04:46;;;;;;;;;;;15.90;99.90;;;15.00;100.00;98585.63;5004199;28;19929;-74
2023/10/08 08:07:15;;;;;;;;;;;16.30;99.90;;;15.15;100.00;98592.81;5007132;28;19930;-74
2023/10/08 08:09:50;;;;;;;;;;;16.60;99.90;;;16.06;100.00;98583.38;5003971;28;20027;-74
2023/10/08 08:12:21;;;;;;;;;;;17.20;99.90;;;16.37;100.00;98592.31;5002650;28;19936;-73
2023/10/08 08:14:50;;;;;;;;;;;18.00;99.90;;;16.66;100.00;98599.56;5004044;28;20454;-73
2023/10/08 08:17:22;;;;;;;;;;;18.20;99.90;;;16.88;100.00;98601.13;5005763;28;20020;-74
2023/10/08 08:19:51;;;;;;;;;;;18.30;99.90;;;17.09;100.00;98601.78;5002978;28;20016;-74
2023/10/08 08:22:23;;;;;;;;;;;18.60;99.90;;;17.01;100.00;98594.28;5007119;28;20149;-74
2023/10/08 08:27:54;;;;;;;;;;;18.90;99.90;;;17.91;100.00;98606.09;5009389;28;19940;-74
2023/10/08 08:30:26;;;;;;;;;;;19.40;99.90;;;17.95;100.00;98603.22;5008314;28;21489;-74
2023/10/08 08:32:55;;;;;;;;;;;19.50;99.90;;;17.80;100.00;98605.81;5003977;28;20601;-74
2023/10/08 08:35:23;;;;;;;;;;;19.70;99.90;;;18.48;100.00;98600.22;5019965;28;20371;-74
2023/10/08 08:37:51;;;;;;;;;;;20.10;99.90;;;18.59;100.00;98598.66;5004093;28;20318;-74
2023/10/08 08:40:18;;;;;;;;;;;20.30;99.90;;;18.96;100.00;98601.75;5004683;28;19965;-75
2023/10/08 08:42:47;;;;;;;;;;;20.50;99.90;;;18.56;100.00;98592.72;5006669;28;19930;-74
2023/10/08 08:45:22;;;;;;;;;;;20.50;99.90;;;18.67;100.00;98597.34;5002370;28;19934;-74
2023/10/08 08:47:49;;;;;;;;;;;20.60;99.90;;;18.80;100.00;98603.63;5002599;28;19929;-74
2023/10/08 08:50:17;;;;;;;;;;;20.80;99.90;;;19.08;100.00;98615.94;5006913;28;19929;-74
2023/10/08 08:52:45;;;;;;;;;;;21.00;99.90;;;19.07;100.00;98621.28;5005488;28;19941;-74
2023/10/08 08:55:32;;;;;;;;;;;20.90;99.90;;;18.76;100.00;98615.22;5000671;28;19930;-74
2023/10/08 08:57:59;;;;;;;;;;;20.80;99.90;;;18.53;100.00;98616.56;5003484;28;19929;-73
2023/10/08 09:00:29;;;;;;;;;;;20.90;99.90;;;18.46;100.00;98623.97;5001894;28;19961;-74
2023/10/08 09:02:56;;;;;;;;;;;21.00;99.90;;;17.95;100.00;98623.41;5001373;28;19937;-74
2023/10/08 09:05:32;;;;;;;;;;;20.40;99.90;;;18.05;100.00;98621.94;5002404;28;19972;-73
2023/10/08 09:08:04;;;;;;;;;;;20.30;99.90;;;18.14;100.00;98618.78;5005298;28;19929;-73
2023/10/08 09:10:51;;;;;;;;;;;20.30;99.90;;;18.26;100.00;98613.75;5004988;28;19969;-73
2023/10/08 09:13:22;;;;;;;;;;;20.30;99.90;;;18.62;100.00;98608.16;4998260;28;20433;-74
2023/10/08 09:15:51;;;;;;;;;;;20.40;99.90;;;18.55;100.00;98614.72;5001688;28;19925;-73
2023/10/08 09:18:22;;;;;;;;;;;20.30;99.90;;;17.96;100.00;98623.28;5005074;28;19933;-73
2023/10/08 09:20:49;;;;;;;;;;;19.90;99.90;;;17.98;100.00;98620.59;5006218;28;20377;-74
2023/10/08 09:23:21;;;;;;;;;;;19.70;99.90;;;17.55;100.00;98620.28;5006624;28;20336;-73
2023/10/08 09:26:01;;;;;;;;;;;19.30;99.90;;;18.14;100.00;98621.41;4991152;28;19936;-73
2023/10/08 09:28:28;;;;;;;;;;;19.20;99.90;;;18.23;100.00;98627.94;5009338;28;19930;-73
2023/10/08 09:30:58;;;;;;;;;;;19.30;99.90;;;18.63;100.00;98625.59;5005235;28;20016;-72
2023/10/08 09:33:25;;;;;;;;;;;19.40;99.90;;;18.42;100.00;98619.81;5002583;28;19930;-72
2023/10/08 09:35:57;;;;;;;;;;;19.50;99.90;;;18.18;100.00;98635.22;5013822;28;19949;-73
2023/10/08 09:38:25;;;;;;;;;;;19.30;99.90;;;18.26;100.00;98625.13;4990016;28;20549;-75
2023/10/08 09:40:53;;;;;;;;;;;19.30;99.90;;;18.18;100.00;98633.44;5001053;28;20012;-73
2023/10/08 09:43:20;;;;;;;;;;;19.30;99.90;;;18.23;100.00;98627.09;5001756;28;20402;-73
2023/10/08 09:46:11;;;;;;;;;;;19.20;99.90;;;17.82;100.00;98628.47;5010602;28;20734;-73
2023/10/08 09:48:41;;;;;;;;;;;19.10;99.90;;;17.78;100.00;98625.13;5003200;28;19932;-73
2023/10/08 09:51:12;;;;;;;;;;;18.90;99.90;;;18.00;100.00;98617.88;5005822;28;20271;-75
2023/10/08 09:53:58;;;;;;;;;;;18.70;99.90;;;17.62;100.00;98620.81;5012389;28;19932;-72
2023/10/08 09:56:29;;;;;;;;;;;18.60;99.90;;;17.97;100.00;98618.88;5015243;28;19937;-72
2023/10/08 09:58:56;;;;;;;;;;;18.60;99.90;;;18.12;100.00;98611.94;5017037;28;20660;-73
2023/10/08 10:01:24;;;;;;;;;;;18.70;99.90;;;17.81;100.00;98616.25;4995129;28;19933;-72
2023/10/08 10:03:51;;;;;;;;;;;18.50;99.90;;;18.07;100.00;98622.69;5001528;28;19934;-73
2023/10/08 10:06:18;;;;;;;;;;;18.60;99.90;;;18.34;100.00;98614.19;5016740;28;19929;-72
2023/10/08 10:08:47;;;;;;;;;;;18.80;99.90;;;18.55;100.00;98614.72;5002310;28;19930;-72
2023/10/08 10:11:15;;;;;;;;;;;18.90;99.90;;;18.53;100.00;98614.78;5014076;28;20936;-72
2023/10/08 10:13:50;;;;;;;;;;;19.10;99.90;;;18.68;100.00;98614.81;5000826;28;19977;-72
2023/10/08 10:16:21;;;;;;;;;;;19.00;99.90;;;18.70;100.00;98619.06;5006411;28;20008;-72
2023/10/08 10:18:49;;;;;;;;;;;19.00;99.90;;;18.60;100.00;98623.16;5002052;28;19941;-72
2023/10/08 10:21:16;;;;;;;;;;;18.90;99.90;;;18.59;100.00;98627.59;4982112;28;20469;-73
2023/10/08 10:23:45;;;;;;;;;;;18.80;99.90;;;18.76;100.00;98623.94;4998935;28;19937;-72
2023/10/08 10:26:33;;;;;;;;;;;18.90;99.90;;;18.61;100.00;98624.88;4999552;28;20021;-73
2023/10/08 10:29:15;;;;;;;;;;;18.90;99.90;;;18.41;100.00;98627.81;5000545;28;20116;-72
2023/10/08 10:31:53;;;;;;;;;;;19.00;99.90;;;18.84;100.00;98627.94;4999398;28;19930;-72
2023/10/08 10:34:27;;;;;;;;;;;19.20;99.90;;;19.07;100.00;98624.78;5002276;28;20594;-72
2023/10/08 10:36:59;;;;;;;;;;;19.40;99.90;;;19.05;100.00;98620.56;5004103;28;20142;-72
2023/10/08 10:39:27;;;;;;;;;;;19.50;99.90;;;19.11;100.00;98612.28;5000063;28;19929;-72
2023/10/08 10:42:03;;;;;;;;;;;19.60;99.90;;;19.02;100.00;98611.91;5000018;28;19937;-72
2023/10/08 10:44:31;;;;;;;;;;;19.60;99.90;;;19.11;100.00;98610.50;4998868;28;19929;-72
2023/10/08 10:58:39;;;;;;;;;;;19.60;99.90;;;19.41;100.00;98613.03;5000486;28;20004;-72
2023/10/08 11:03:16;;;;;;;;;;;19.70;99.90;;;19.49;100.00;98606.44;4999913;28;19997;-72
2023/10/08 11:05:51;;;;;;;;;;;19.60;99.90;;;19.43;100.00;98610.28;5000978;28;19976;-72
2023/10/08 11:08:19;;;;;;;;;;;19.60;99.90;;;19.61;100.00;98603.91;5005780;28;20016;-72
2023/10/08 11:10:58;;;;;;;;;;;19.70;99.90;;;19.49;100.00;98609.06;5013975;28;20402;-72
2023/10/08 11:13:28;;;;;;;;;;;19.70;99.90;;;19.67;100.00;98601.81;5009971;28;19933;-71
2023/10/08 11:15:57;;;;;;;;;;;19.90;99.90;;;19.84;100.00;98599.81;5011424;28;19952;-72
2023/10/08 11:18:27;;;;;;;;;;;20.10;99.90;;;19.71;100.00;98609.44;4997651;28;19955;-72
2023/10/08 11:21:15;;;;;;;;;;;20.10;99.90;;;20.03;100.00;98607.38;4999654;28;19945;-71
2023/10/08 11:23:52;;;;;;;;;;;20.00;99.90;;;20.01;100.00;98613.69;4999145;28;20509;-72
2023/10/08 11:26:31;;;;;;;;;;;20.10;99.90;;;19.98;100.00;98611.25;4998163;28;19935;-72
2023/10/08 11:29:03;;;;;;;;;;;20.10;99.90;;;20.00;100.00;98602.31;5012070;28;19988;-72
2023/10/08 11:31:33;;;;;;;;;;;20.30;99.90;;;20.16;100.00;98598.66;5000274;28;19934;-72
2023/10/08 11:34:12;;;;;;;;;;;20.40;99.90;;;20.47;100.00;98597.47;5012699;28;20417;-72
2023/10/08 11:36:48;;;;;;;;;;;20.50;99.90;;;20.44;100.00;98589.78;5009738;28;20353;-72
2023/10/08 11:39:23;;;;;;;;;;;20.50;99.90;;;20.63;100.00;98598.16;5004520;28;20039;-74
2023/10/08 11:42:10;;;;;;;;;;;20.50;99.90;;;20.39;100.00;98594.50;4998079;28;20461;-72
2023/10/08 11:44:37;;;;;;;;;;;20.60;99.90;;;20.42;100.00;98594.31;5002289;28;20394;-72
2023/10/08 11:47:11;;;;;;;;;;;20.70;99.90;;;20.75;100.00;98595.66;4986658;28;19926;-72
2023/10/08 11:49:46;;;;;;;;;;;20.80;99.90;;;20.82;100.00;98589.88;5013906;28;19926;-72
2023/10/08 11:52:21;;;;;;;;;;;20.90;99.90;;;20.86;100.00;98582.56;4998896;28;19933;-72
2023/10/08 11:54:49;;;;;;;;;;;20.90;99.90;;;20.88;100.00;98589.44;4998900;28;19929;-72
2023/10/08 11:57:21;;;;;;;;;;;21.00;99.90;;;20.81;100.00;98587.31;4993801;28;20012;-72
2023/10/08 11:59:52;;;;;;;;;;;21.10;99.90;;;20.95;100.00;98597.78;5012242;28;19930;-72
2023/10/08 12:02:20;;;;;;;;;;;21.00;99.90;;;20.92;100.00;98587.44;5000683;28;19930;-72
2023/10/08 12:04:47;;;;;;;;;;;21.10;99.90;;;21.17;100.00;98591.84;4982445;28;19935;-72
2023/10/08 12:07:17;;;;;;;;;;;21.30;99.90;;;21.36;100.00;98593.22;4997454;28;20068;-72
2023/10/08 12:09:48;;;;;;;;;;;21.30;99.90;;;21.14;100.00;98594.69;5000997;28;19925;-72
2023/10/08 12:12:16;;;;;;;;;;;21.30;99.90;;;21.34;100.00;98592.47;4998518;28;20470;-71
2023/10/08 12:14:47;;;;;;;;;;;21.30;99.90;;;21.85;100.00;98589.69;4998074;28;19985;-72
2023/10/08 12:17:16;;;;;;;;;;;21.70;99.90;;;21.58;100.00;98582.00;4998335;28;19926;-72
2023/10/08 12:19:45;;;;;;;;;;;21.70;99.90;;;21.58;100.00;98585.47;5002087;28;19975;-73
2023/10/08 12:22:17;;;;;;;;;;;21.80;99.90;;;21.56;100.00;98589.19;5002147;28;19929;-72
2023/10/08 12:24:48;;;;;;;;;;;21.80;99.90;;;21.88;100.00;98584.22;5001209;28;19960;-73
2023/10/08 12:27:17;;;;;;;;;;;21.60;99.90;;;21.77;100.00;98584.97;5000075;28;19955;-72
2023/10/08 12:29:44;;;;;;;;;;;21.70;99.90;;;21.80;100.00;98584.75;5001032;28;20366;-72
2023/10/08 12:32:17;;;;;;;;;;;21.70;99.90;;;21.90;100.00;98584.94;4998550;28;19936;-73
2023/10/08 12:34:45;;;;;;;;;;;22.00;99.90;;;22.30;100.00;98580.22;4997057;28;20402;-73
2023/10/08 12:37:14;;;;;;;;;;;22.10;99.90;;;22.59;100.00;98571.06;4996901;28;20683;-72
2023/10/08 12:39:59;;;;;;;;;;;22.20;99.90;;;22.59;100.00;98571.91;4997461;28;19973;-72
2023/10/08 12:42:27;;;;;;;;;;;22.30;99.90;;;22.57;100.00;98572.97;4997967;28;20452;-72
2023/10/08 12:44:57;;;;;;;;;;;22.40;99.90;;;22.73;100.00;98576.97;5000594;28;20067;-72
2023/10/08 12:47:28;;;;;;;;;;;22.60;99.90;;;22.92;100.00;98570.25;4997853;28;20028;-73